x

Halifax Harbour (44258) Wave Buoy

3:00am - Thu 26th May 2016 All times are EDT. -4 hours from GMT.

  • Sig Wave height 3.6ft
  • Peak Period 8s
  • Wind
    16mph, 18mph gusts
  • Sea Temp 45°f
  • Air Temp 46°f
  • Sea Pressure 1013mb
  • Halifax Harbour
  • Halifax Harbour

More Historic Weather Station data

Upgrade to MSW Pro to gain access to the past 30 days of data for over 8000 Wavebouys and Weather Stations around the globe.

Join Pro

Comparision Forecast

View Surf forecast
   
Thu 05/26 3:00am 3.5ft 8s 16 18 mph 1013mb 45f 46f
2:00am 3.5ft 8s 13 16 mph 1013.4mb 45f 47f
1:00am 4ft 8s 13 18 mph 1013.3mb 45f 48f
12:00am 3.5ft 8s 11
mph
1013.6mb 45f 49f
Wed 05/25 11:00pm 3.5ft 7s 7 9 mph 1013.9mb 45f 47f
10:00pm 3.5ft 7s 11 13 mph 1013.9mb 46f 48f
9:00pm 3.5ft 8s 7 9 mph 1014.4mb 46f 47f
8:00pm 3.5ft 7s 7 9 mph 1014.5mb 46f 47f
7:00pm 3.5ft 8s 4 7 mph 1014.3mb 46f 47f
6:00pm 3.5ft 8s 7 9 mph 1014.3mb 46f 46f
5:00pm 3.5ft 7s 4 7 mph 1014.2mb 46f 46f
4:00pm 3.5ft 8s 7 9 mph 1014.6mb 46f 46f
3:00pm 3.5ft 7s 9 11 mph 1014.8mb 46f 47f
2:00pm 3.5ft 8s 9 11 mph 1015.2mb 46f 47f
1:00pm 3.5ft 7s 7 9 mph 1015.4mb 45f 47f
12:00pm 3ft 8s 7
mph
1016.1mb 45f 47f
11:00am 3.5ft 7s 7
mph
1016.5mb 45f 47f
10:00am 3.5ft 7s 7
mph
1016.9mb 45f 46f
9:00am 3.5ft 7s 7 9 mph 1016.7mb 45f 46f
8:00am 3.5ft 8s 4
mph
1016.6mb 45f 46f
7:00am 3.5ft 7s 7
mph
1016.8mb 44f 45f
6:00am 4.5ft 8s 4
mph
1016.9mb 44f 46f
5:00am 3.5ft 8s 7
mph
1017mb 44f 45f
4:00am 3.5ft 8s 4
mph
1016.8mb 44f 45f
3:00am 3.5ft 8s 4
mph
1016.7mb 44f 45f
2:00am 4ft 8s 4
mph
1016.9mb 44f 45f
1:00am 3.5ft 8s 4 7 mph 1017.2mb 44f 45f
12:00am 3.5ft 9s 4
mph
1017.2mb 44f 45f
Tue 05/24 11:00pm 3.5ft 8s 2 4 mph 1017.1mb 44f 46f
10:00pm 3.5ft 9s 2
mph
1017.3mb 44f 46f
9:00pm 3.5ft 8s 4 7 mph 1017.5mb 44f 47f
8:00pm 4ft 9s 4 7 mph 1017mb 44f 46f
7:00pm 3.5ft 9s 7
mph
1017.2mb 44f 46f
6:00pm 3.5ft 9s 2 4 mph 1017.3mb 44f 45f
5:00pm 3.5ft 8s 7 9 mph 1016.8mb 44f 45f
4:00pm 4ft 8s 4 7 mph 1017.6mb 44f 46f
3:00pm 4.5ft 9s 9
mph
1017.8mb 44f 45f
2:00pm 4.5ft 8s 7 9 mph 1017.8mb 44f 45f
1:00pm 5ft 8s 4 7 mph 1018.3mb 44f 45f
12:00pm 5.5ft 8s 9 11 mph 1018.5mb 44f 44f
11:00am 5ft 9s 9 13 mph 1018.5mb 44f 44f
10:00am 5.5ft 8s 11 13 mph 1018.8mb 44f 43f
9:00am 5ft 8s 9 11 mph 1018.8mb 43f 43f
8:00am 5ft 9s 9 11 mph 1018.6mb 43f 43f
7:00am 5.5ft 9s 9 11 mph 1018.2mb 43f 43f
6:00am 5ft 9s 7 9 mph 1018.6mb 44f 42f
5:00am 6ft 9s 7 9 mph 1018.2mb 44f 41f
4:00am 4.5ft 10s 2 4 mph 1017.5mb 44f 41f
3:00am 6ft 9s 2
mph
1017.9mb 44f 42f
2:00am 6ft 10s 2 4 mph 1016.9mb 44f 42f
1:00am 6ft 10s 2 4 mph 1016.6mb 44f 42f
12:00am 6ft 10s 4 7 mph 1016.4mb 44f 43f
Mon 05/23 11:00pm 6ft 10s 4
mph
1016.2mb 44f 44f
10:00pm 8.5ft 10s 2 4 mph 1015.4mb 43f 44f
9:00pm 7ft 10s 7 9 mph 1015.3mb 43f 44f
8:00pm 8ft 10s 4 7 mph 1014.4mb 43f 44f
7:00pm 8ft 10s 9
mph
1014mb 44f 44f
6:00pm 8ft 10s 7 9 mph 1013.2mb 44f 44f
5:00pm 8.5ft 10s 7 9 mph 1012.6mb 43f 44f
4:00pm 9ft 10s 7 9 mph 1012.5mb 43f 44f
3:00pm 9.5ft 10s 7 9 mph 1011.7mb 44f 44f
2:00pm 9ft 10s 11 13 mph 1011mb 44f 44f
1:00pm 10.5ft 10s 11 13 mph 1011mb 44f 44f
12:00pm 10ft 11s 13 16 mph 1010.3mb 44f 44f
11:00am 9ft 11s 16 18 mph 1009.9mb - 44f
10:00am 10ft 11s 13 18 mph 1009.4mb - 44f
9:00am 11ft 12s 16 20 mph 1008.8mb - 44f
8:00am 10.5ft 11s 20 25 mph 1007.7mb - 44f
7:00am 11.5ft 11s 22 27 mph 1007.3mb - 45f
6:00am 11ft 10s 22 27 mph 1006.6mb - 45f
5:00am 11ft 10s 22 27 mph 1006.3mb - 45f
4:00am 12ft 10s 25 31 mph 1005.7mb - 46f
3:00am 11ft 10s 27 31 mph 1005.6mb - 45f
2:00am 9ft 6s 27 31 mph 1005.7mb - 45f
1:00am 8.5ft 7s 29 36 mph 1006.1mb - 45f
12:00am 8.5ft 6s 31 38 mph 1006.6mb - 45f
Sun 05/22 11:00pm 7ft 6s 31 38 mph 1006.8mb - 46f
10:00pm 7.5ft 6s 31 38 mph 1007.3mb - 46f
9:00pm 6ft 5s 31 38 mph 1008mb - 47f
8:00pm 4.5ft 4s 31 36 mph 1008.8mb - 47f
6:00pm 2.5ft 4s 25 29 mph 1010.7mb - 47f
5:00pm 2.5ft 9s 20 25 mph 1012.2mb - 47f
4:00pm 2ft 8s 16 18 mph 1013.3mb - 46f
3:00pm 2ft 9s 11 13 mph 1014.2mb - 46f
2:00pm 2ft 8s 11 13 mph 1014.7mb - 47f
1:00pm 2ft 9s 9 11 mph 1015mb - 47f
12:00pm 2ft 9s 7 9 mph 1015.8mb - 48f
11:00am 2.5ft 8s 2
mph
1016.8mb - 49f
10:00am 2ft 9s 2 4 mph 1016.7mb - 47f
9:00am 2ft 9s 11 13 mph 1016.7mb - 47f